sensor_id;sensor_type;location;lat;lon;timestamp;temperature;humidity
7942;HTU21D;4016;50.758;7.150;2022-10-20T00:01:29;12.14;118.99
7942;HTU21D;4016;50.758;7.150;2022-10-20T00:06:31;12.10;118.99
7942;HTU21D;4016;50.758;7.150;2022-10-20T00:11:32;12.26;118.51
7942;HTU21D;4016;50.758;7.150;2022-10-20T00:16:35;12.10;118.99
7942;HTU21D;4016;50.758;7.150;2022-10-20T00:21:36;11.94;118.99
7942;HTU21D;4016;50.758;7.150;2022-10-20T00:26:36;12.03;118.99
7942;HTU21D;4016;50.758;7.150;2022-10-20T00:31:37;11.90;118.99
7942;HTU21D;4016;50.758;7.150;2022-10-20T00:36:38;11.84;118.99
7942;HTU21D;4016;50.758;7.150;2022-10-20T00:41:38;11.90;118.99
7942;HTU21D;4016;50.758;7.150;2022-10-20T00:46:40;11.69;118.99
7942;HTU21D;4016;50.758;7.150;2022-10-20T00:51:41;11.76;118.99
7942;HTU21D;4016;50.758;7.150;2022-10-20T00:56:45;11.66;118.99
7942;HTU21D;4016;50.758;7.150;2022-10-20T01:01:48;11.69;118.99
7942;HTU21D;4016;50.758;7.150;2022-10-20T01:06:48;11.54;118.99
7942;HTU21D;4016;50.758;7.150;2022-10-20T01:12:06;11.64;118.89
7942;HTU21D;4016;50.758;7.150;2022-10-20T01:17:20;11.56;118.99
7942;HTU21D;4016;50.758;7.150;2022-10-20T01:22:55;11.52;118.93
7942;HTU21D;4016;50.758;7.150;2022-10-20T01:28:05;11.37;118.99
7942;HTU21D;4016;50.758;7.150;2022-10-20T01:38:38;11.42;118.99
7942;HTU21D;4016;50.758;7.150;2022-10-20T01:43:41;11.39;118.99
7942;HTU21D;4016;50.758;7.150;2022-10-20T01:48:43;11.39;118.99
7942;HTU21D;4016;50.758;7.150;2022-10-20T01:53:43;11.31;118.99
7942;HTU21D;4016;50.758;7.150;2022-10-20T01:58:59;11.27;118.99
7942;HTU21D;4016;50.758;7.150;2022-10-20T02:04:04;11.23;118.99
7942;HTU21D;4016;50.758;7.150;2022-10-20T02:09:18;11.11;118.99
7942;HTU21D;4016;50.758;7.150;2022-10-20T02:14:21;11.07;118.99
7942;HTU21D;4016;50.758;7.150;2022-10-20T02:19:24;11.10;118.99
7942;HTU21D;4016;50.758;7.150;2022-10-20T02:24:33;11.12;118.99
7942;HTU21D;4016;50.758;7.150;2022-10-20T02:29:51;11.04;118.99
7942;HTU21D;4016;50.758;7.150;2022-10-20T02:34:53;11.04;118.99
7942;HTU21D;4016;50.758;7.150;2022-10-20T02:39:54;11.03;118.99
7942;HTU21D;4016;50.758;7.150;2022-10-20T02:44:54;11.15;118.98
7942;HTU21D;4016;50.758;7.150;2022-10-20T02:49:54;11.15;118.47
7942;HTU21D;4016;50.758;7.150;2022-10-20T02:54:55;11.16;118.60
7942;HTU21D;4016;50.758;7.150;2022-10-20T02:59:55;11.09;118.58
7942;HTU21D;4016;50.758;7.150;2022-10-20T03:04:56;11.12;118.22
7942;HTU21D;4016;50.758;7.150;2022-10-20T03:09:56;11.07;118.37
7942;HTU21D;4016;50.758;7.150;2022-10-20T03:14:56;11.07;117.99
7942;HTU21D;4016;50.758;7.150;2022-10-20T03:19:57;10.95;118.99
7942;HTU21D;4016;50.758;7.150;2022-10-20T03:24:57;10.98;118.60
7942;HTU21D;4016;50.758;7.150;2022-10-20T03:29:57;10.87;118.99
7942;HTU21D;4016;50.758;7.150;2022-10-20T03:34:58;10.88;118.99
7942;HTU21D;4016;50.758;7.150;2022-10-20T03:39:58;10.90;118.99
7942;HTU21D;4016;50.758;7.150;2022-10-20T03:44:58;10.94;118.96
7942;HTU21D;4016;50.758;7.150;2022-10-20T03:49:59;10.89;118.99
7942;HTU21D;4016;50.758;7.150;2022-10-20T03:54:59;11.07;118.12
7942;HTU21D;4016;50.758;7.150;2022-10-20T04:00:00;11.04;118.04
7942;HTU21D;4016;50.758;7.150;2022-10-20T04:05:00;11.13;117.41
7942;HTU21D;4016;50.758;7.150;2022-10-20T04:10:00;11.08;117.05
7942;HTU21D;4016;50.758;7.150;2022-10-20T04:15:02;11.07;117.41
7942;HTU21D;4016;50.758;7.150;2022-10-20T04:20:04;11.10;116.90
7942;HTU21D;4016;50.758;7.150;2022-10-20T04:25:05;11.05;116.62
7942;HTU21D;4016;50.758;7.150;2022-10-20T04:30:06;11.20;115.83
7942;HTU21D;4016;50.758;7.150;2022-10-20T04:35:07;11.08;116.64
7942;HTU21D;4016;50.758;7.150;2022-10-20T04:40:08;10.94;117.85
7942;HTU21D;4016;50.758;7.150;2022-10-20T04:45:08;10.94;117.80
7942;HTU21D;4016;50.758;7.150;2022-10-20T04:50:09;10.94;117.76
7942;HTU21D;4016;50.758;7.150;2022-10-20T04:55:09;11.03;116.60
7942;HTU21D;4016;50.758;7.150;2022-10-20T05:00:10;11.03;116.80
7942;HTU21D;4016;50.758;7.150;2022-10-20T05:05:11;11.04;116.65
7942;HTU21D;4016;50.758;7.150;2022-10-20T05:10:11;11.04;115.98
7942;HTU21D;4016;50.758;7.150;2022-10-20T05:15:11;11.05;116.00
7942;HTU21D;4016;50.758;7.150;2022-10-20T05:20:12;11.10;115.54
7942;HTU21D;4016;50.758;7.150;2022-10-20T05:25:12;11.01;116.68
7942;HTU21D;4016;50.758;7.150;2022-10-20T05:30:12;10.95;116.65
7942;HTU21D;4016;50.758;7.150;2022-10-20T05:35:13;10.94;116.62
7942;HTU21D;4016;50.758;7.150;2022-10-20T05:40:13;10.99;116.41
7942;HTU21D;4016;50.758;7.150;2022-10-20T05:45:14;10.99;116.52
7942;HTU21D;4016;50.758;7.150;2022-10-20T05:50:14;11.12;115.89
7942;HTU21D;4016;50.758;7.150;2022-10-20T05:55:15;11.01;116.12
7942;HTU21D;4016;50.758;7.150;2022-10-20T06:00:15;11.02;116.23
7942;HTU21D;4016;50.758;7.150;2022-10-20T06:05:18;10.93;117.28
7942;HTU21D;4016;50.758;7.150;2022-10-20T06:10:18;10.94;116.42
7942;HTU21D;4016;50.758;7.150;2022-10-20T06:15:18;10.87;117.60
7942;HTU21D;4016;50.758;7.150;2022-10-20T06:20:19;10.85;118.21
7942;HTU21D;4016;50.758;7.150;2022-10-20T06:25:19;10.96;117.60
7942;HTU21D;4016;50.758;7.150;2022-10-20T06:30:20;11.03;117.57
7942;HTU21D;4016;50.758;7.150;2022-10-20T06:35:20;11.09;117.43
7942;HTU21D;4016;50.758;7.150;2022-10-20T06:40:20;11.19;117.03
7942;HTU21D;4016;50.758;7.150;2022-10-20T06:45:21;11.27;117.54
7942;HTU21D;4016;50.758;7.150;2022-10-20T06:50:21;11.34;116.41
7942;HTU21D;4016;50.758;7.150;2022-10-20T06:55:21;11.51;115.28
7942;HTU21D;4016;50.758;7.150;2022-10-20T07:00:22;11.66;113.87
7942;HTU21D;4016;50.758;7.150;2022-10-20T07:05:22;11.61;115.09
7942;HTU21D;4016;50.758;7.150;2022-10-20T07:10:22;11.63;114.99
7942;HTU21D;4016;50.758;7.150;2022-10-20T07:15:23;11.71;114.94
7942;HTU21D;4016;50.758;7.150;2022-10-20T07:20:23;11.78;115.12
7942;HTU21D;4016;50.758;7.150;2022-10-20T07:25:24;11.94;113.79
7942;HTU21D;4016;50.758;7.150;2022-10-20T07:30:24;11.99;114.26
7942;HTU21D;4016;50.758;7.150;2022-10-20T07:35:24;12.04;113.31
7942;HTU21D;4016;50.758;7.150;2022-10-20T07:40:25;12.12;112.95
7942;HTU21D;4016;50.758;7.150;2022-10-20T07:45:25;12.17;112.65
7942;HTU21D;4016;50.758;7.150;2022-10-20T07:50:26;12.17;112.65
7942;HTU21D;4016;50.758;7.150;2022-10-20T07:55:26;12.35;111.61
7942;HTU21D;4016;50.758;7.150;2022-10-20T08:00:26;12.40;112.30
7942;HTU21D;4016;50.758;7.150;2022-10-20T08:05:27;12.50;112.28
7942;HTU21D;4016;50.758;7.150;2022-10-20T08:10:28;12.53;111.34
7942;HTU21D;4016;50.758;7.150;2022-10-20T08:15:29;12.66;111.49
7942;HTU21D;4016;50.758;7.150;2022-10-20T08:20:29;12.77;111.29
7942;HTU21D;4016;50.758;7.150;2022-10-20T08:25:31;12.80;111.98
7942;HTU21D;4016;50.758;7.150;2022-10-20T08:30:32;12.99;110.33
7942;HTU21D;4016;50.758;7.150;2022-10-20T08:35:33;13.02;110.81
7942;HTU21D;4016;50.758;7.150;2022-10-20T08:40:35;13.06;110.36
7942;HTU21D;4016;50.758;7.150;2022-10-20T08:45:38;13.14;109.89
7942;HTU21D;4016;50.758;7.150;2022-10-20T08:50:43;13.14;110.47
7942;HTU21D;4016;50.758;7.150;2022-10-20T08:55:45;13.09;111.09
7942;HTU21D;4016;50.758;7.150;2022-10-20T09:00:46;13.31;110.39
7942;HTU21D;4016;50.758;7.150;2022-10-20T09:05:58;13.38;109.96
7942;HTU21D;4016;50.758;7.150;2022-10-20T09:10:59;13.38;111.07
7942;HTU21D;4016;50.758;7.150;2022-10-20T09:16:12;13.50;110.31
7942;HTU21D;4016;50.758;7.150;2022-10-20T09:21:18;13.47;111.42
7942;HTU21D;4016;50.758;7.150;2022-10-20T09:26:44;13.47;111.52
7942;HTU21D;4016;50.758;7.150;2022-10-20T09:31:44;13.66;109.86
7942;HTU21D;4016;50.758;7.150;2022-10-20T09:36:44;13.56;111.32
7942;HTU21D;4016;50.758;7.150;2022-10-20T09:41:46;13.66;110.83
7942;HTU21D;4016;50.758;7.150;2022-10-20T09:46:48;13.68;112.13
7942;HTU21D;4016;50.758;7.150;2022-10-20T09:51:51;13.88;110.01
7942;HTU21D;4016;50.758;7.150;2022-10-20T09:56:52;13.91;109.59
7942;HTU21D;4016;50.758;7.150;2022-10-20T10:01:58;13.91;112.05
7942;HTU21D;4016;50.758;7.150;2022-10-20T10:06:59;14.00;113.60
7942;HTU21D;4016;50.758;7.150;2022-10-20T10:17:00;14.14;114.66
7942;HTU21D;4016;50.758;7.150;2022-10-20T10:22:02;14.15;114.69
7942;HTU21D;4016;50.758;7.150;2022-10-20T10:27:05;14.05;115.74
7942;HTU21D;4016;50.758;7.150;2022-10-20T10:32:17;14.21;113.76
7942;HTU21D;4016;50.758;7.150;2022-10-20T10:37:18;14.09;113.95
7942;HTU21D;4016;50.758;7.150;2022-10-20T10:53:35;14.15;115.10
7942;HTU21D;4016;50.758;7.150;2022-10-20T10:59:27;14.07;115.98
7942;HTU21D;4016;50.758;7.150;2022-10-20T11:04:27;13.98;117.17
7942;HTU21D;4016;50.758;7.150;2022-10-20T11:15:26;13.86;118.99
7942;HTU21D;4016;50.758;7.150;2022-10-20T11:20:37;13.95;118.99
7942;HTU21D;4016;50.758;7.150;2022-10-20T11:25:53;13.98;118.99
7942;HTU21D;4016;50.758;7.150;2022-10-20T11:30:57;13.97;118.99
7942;HTU21D;4016;50.758;7.150;2022-10-20T11:36:03;13.99;118.99
7942;HTU21D;4016;50.758;7.150;2022-10-20T11:46:22;14.08;118.99
7942;HTU21D;4016;50.758;7.150;2022-10-20T12:13:25;13.99;118.99
7942;HTU21D;4016;50.758;7.150;2022-10-20T12:18:30;13.89;118.99
7942;HTU21D;4016;50.758;7.150;2022-10-20T12:28:48;13.89;118.99
7942;HTU21D;4016;50.758;7.150;2022-10-20T12:38:53;13.88;118.99
7942;HTU21D;4016;50.758;7.150;2022-10-20T12:44:15;13.98;118.99
7942;HTU21D;4016;50.758;7.150;2022-10-20T12:49:24;14.03;118.99
7942;HTU21D;4016;50.758;7.150;2022-10-20T12:54:37;14.05;118.99
7942;HTU21D;4016;50.758;7.150;2022-10-20T12:59:39;14.14;118.99
7942;HTU21D;4016;50.758;7.150;2022-10-20T13:10:31;14.23;118.99
7942;HTU21D;4016;50.758;7.150;2022-10-20T13:20:49;14.29;118.99
7942;HTU21D;4016;50.758;7.150;2022-10-20T13:25:54;14.25;118.99
7942;HTU21D;4016;50.758;7.150;2022-10-20T13:31:04;14.29;118.99
7942;HTU21D;4016;50.758;7.150;2022-10-20T13:36:41;14.29;118.99
7942;HTU21D;4016;50.758;7.150;2022-10-20T13:52:55;14.45;118.99
7942;HTU21D;4016;50.758;7.150;2022-10-20T13:58:07;14.53;118.99
7942;HTU21D;4016;50.758;7.150;2022-10-20T14:03:16;14.53;118.99
7942;HTU21D;4016;50.758;7.150;2022-10-20T14:08:17;14.52;118.99
7942;HTU21D;4016;50.758;7.150;2022-10-20T14:13:20;14.55;118.99
7942;HTU21D;4016;50.758;7.150;2022-10-20T14:18:32;14.64;118.99
7942;HTU21D;4016;50.758;7.150;2022-10-20T14:23:37;14.62;118.99
7942;HTU21D;4016;50.758;7.150;2022-10-20T14:28:39;14.62;118.99
7942;HTU21D;4016;50.758;7.150;2022-10-20T14:33:43;14.51;118.99
7942;HTU21D;4016;50.758;7.150;2022-10-20T14:38:47;14.43;118.99
7942;HTU21D;4016;50.758;7.150;2022-10-20T14:43:51;14.47;118.99
7942;HTU21D;4016;50.758;7.150;2022-10-20T14:48:52;14.42;118.99
7942;HTU21D;4016;50.758;7.150;2022-10-20T14:59:20;14.33;118.99
7942;HTU21D;4016;50.758;7.150;2022-10-20T15:04:25;14.32;118.99
7942;HTU21D;4016;50.758;7.150;2022-10-20T15:14:51;14.39;118.99
7942;HTU21D;4016;50.758;7.150;2022-10-20T15:19:52;14.48;118.99
7942;HTU21D;4016;50.758;7.150;2022-10-20T15:24:52;14.54;118.99
7942;HTU21D;4016;50.758;7.150;2022-10-20T15:29:53;14.53;118.99
7942;HTU21D;4016;50.758;7.150;2022-10-20T15:34:53;14.50;118.99
7942;HTU21D;4016;50.758;7.150;2022-10-20T15:39:53;14.45;118.99
7942;HTU21D;4016;50.758;7.150;2022-10-20T15:44:54;14.43;118.99
7942;HTU21D;4016;50.758;7.150;2022-10-20T15:49:54;14.51;118.99
7942;HTU21D;4016;50.758;7.150;2022-10-20T15:54:54;14.36;118.99
7942;HTU21D;4016;50.758;7.150;2022-10-20T15:59:55;14.36;118.99
7942;HTU21D;4016;50.758;7.150;2022-10-20T16:04:55;14.29;118.99
7942;HTU21D;4016;50.758;7.150;2022-10-20T16:09:55;14.08;118.99
7942;HTU21D;4016;50.758;7.150;2022-10-20T16:14:56;13.98;118.99
7942;HTU21D;4016;50.758;7.150;2022-10-20T16:19:56;13.93;118.99
7942;HTU21D;4016;50.758;7.150;2022-10-20T16:24:56;13.83;118.99
7942;HTU21D;4016;50.758;7.150;2022-10-20T16:30:00;13.76;118.99
7942;HTU21D;4016;50.758;7.150;2022-10-20T16:35:04;13.73;118.99
7942;HTU21D;4016;50.758;7.150;2022-10-20T16:40:05;13.75;118.99
7942;HTU21D;4016;50.758;7.150;2022-10-20T16:45:07;13.77;118.99
7942;HTU21D;4016;50.758;7.150;2022-10-20T16:50:07;13.65;118.99
7942;HTU21D;4016;50.758;7.150;2022-10-20T16:55:08;13.70;118.99
7942;HTU21D;4016;50.758;7.150;2022-10-20T17:00:09;13.76;118.99
7942;HTU21D;4016;50.758;7.150;2022-10-20T17:05:09;13.68;118.99
7942;HTU21D;4016;50.758;7.150;2022-10-20T17:10:10;13.68;118.99
7942;HTU21D;4016;50.758;7.150;2022-10-20T17:15:10;13.84;118.99
7942;HTU21D;4016;50.758;7.150;2022-10-20T17:20:10;13.60;118.99
7942;HTU21D;4016;50.758;7.150;2022-10-20T17:25:11;13.47;118.99
7942;HTU21D;4016;50.758;7.150;2022-10-20T17:30:11;13.65;118.99
7942;HTU21D;4016;50.758;7.150;2022-10-20T17:35:13;13.58;118.99
7942;HTU21D;4016;50.758;7.150;2022-10-20T17:40:14;13.58;118.99
7942;HTU21D;4016;50.758;7.150;2022-10-20T17:45:14;13.59;118.99
7942;HTU21D;4016;50.758;7.150;2022-10-20T17:50:14;13.54;118.99
7942;HTU21D;4016;50.758;7.150;2022-10-20T17:55:15;13.40;118.99
7942;HTU21D;4016;50.758;7.150;2022-10-20T18:00:15;13.37;118.99
7942;HTU21D;4016;50.758;7.150;2022-10-20T18:05:16;13.37;118.99
7942;HTU21D;4016;50.758;7.150;2022-10-20T18:10:17;13.32;118.99
7942;HTU21D;4016;50.758;7.150;2022-10-20T18:15:17;13.35;118.99
7942;HTU21D;4016;50.758;7.150;2022-10-20T18:20:18;13.29;118.99
7942;HTU21D;4016;50.758;7.150;2022-10-20T18:25:18;13.36;118.99
7942;HTU21D;4016;50.758;7.150;2022-10-20T18:30:19;13.41;118.99
7942;HTU21D;4016;50.758;7.150;2022-10-20T18:35:19;13.41;118.99
7942;HTU21D;4016;50.758;7.150;2022-10-20T18:40:23;13.49;118.99
7942;HTU21D;4016;50.758;7.150;2022-10-20T18:45:23;13.54;118.99
7942;HTU21D;4016;50.758;7.150;2022-10-20T18:50:23;13.56;118.99
7942;HTU21D;4016;50.758;7.150;2022-10-20T18:55:24;13.62;118.99
7942;HTU21D;4016;50.758;7.150;2022-10-20T19:00:24;13.69;118.99
7942;HTU21D;4016;50.758;7.150;2022-10-20T19:05:25;13.68;118.99
7942;HTU21D;4016;50.758;7.150;2022-10-20T19:10:25;13.63;118.99
7942;HTU21D;4016;50.758;7.150;2022-10-20T19:15:25;13.56;118.99
7942;HTU21D;4016;50.758;7.150;2022-10-20T19:20:28;13.58;118.99
7942;HTU21D;4016;50.758;7.150;2022-10-20T19:25:29;13.61;118.99
7942;HTU21D;4016;50.758;7.150;2022-10-20T19:30:33;13.66;118.99
7942;HTU21D;4016;50.758;7.150;2022-10-20T19:35:33;13.75;118.99
7942;HTU21D;4016;50.758;7.150;2022-10-20T19:40:34;13.67;118.99
7942;HTU21D;4016;50.758;7.150;2022-10-20T19:45:35;13.77;118.99
7942;HTU21D;4016;50.758;7.150;2022-10-20T19:50:35;13.73;118.99
7942;HTU21D;4016;50.758;7.150;2022-10-20T19:55:36;13.80;118.99
7942;HTU21D;4016;50.758;7.150;2022-10-20T20:00:36;13.70;118.99
7942;HTU21D;4016;50.758;7.150;2022-10-20T20:05:41;13.70;118.99
7942;HTU21D;4016;50.758;7.150;2022-10-20T20:10:50;13.68;118.99
7942;HTU21D;4016;50.758;7.150;2022-10-20T20:15:50;13.71;118.99
7942;HTU21D;4016;50.758;7.150;2022-10-20T20:20:51;13.84;118.99
7942;HTU21D;4016;50.758;7.150;2022-10-20T20:25:51;13.92;118.99
7942;HTU21D;4016;50.758;7.150;2022-10-20T20:31:20;13.94;118.99
7942;HTU21D;4016;50.758;7.150;2022-10-20T20:36:19;13.99;118.99
7942;HTU21D;4016;50.758;7.150;2022-10-20T20:41:20;13.93;118.99
7942;HTU21D;4016;50.758;7.150;2022-10-20T20:46:22;13.94;118.99
7942;HTU21D;4016;50.758;7.150;2022-10-20T20:51:23;13.89;118.99
7942;HTU21D;4016;50.758;7.150;2022-10-20T20:56:25;13.88;118.99
7942;HTU21D;4016;50.758;7.150;2022-10-20T21:01:27;13.92;118.99
7942;HTU21D;4016;50.758;7.150;2022-10-20T21:06:29;14.13;118.99
7942;HTU21D;4016;50.758;7.150;2022-10-20T21:11:29;14.14;118.99
7942;HTU21D;4016;50.758;7.150;2022-10-20T21:16:34;14.15;118.99
7942;HTU21D;4016;50.758;7.150;2022-10-20T21:21:38;14.30;118.99
7942;HTU21D;4016;50.758;7.150;2022-10-20T21:26:38;14.29;118.99
7942;HTU21D;4016;50.758;7.150;2022-10-20T21:31:39;14.38;118.99
7942;HTU21D;4016;50.758;7.150;2022-10-20T21:36:40;14.45;118.99
7942;HTU21D;4016;50.758;7.150;2022-10-20T21:41:41;14.33;118.99
7942;HTU21D;4016;50.758;7.150;2022-10-20T21:46:45;14.38;118.99
7942;HTU21D;4016;50.758;7.150;2022-10-20T21:51:52;14.36;118.99
7942;HTU21D;4016;50.758;7.150;2022-10-20T21:56:53;14.36;118.99
7942;HTU21D;4016;50.758;7.150;2022-10-20T22:01:58;14.35;118.99
7942;HTU21D;4016;50.758;7.150;2022-10-20T22:06:59;14.49;118.99
7942;HTU21D;4016;50.758;7.150;2022-10-20T22:11:59;14.64;118.99
7942;HTU21D;4016;50.758;7.150;2022-10-20T22:17:00;14.59;118.99
7942;HTU21D;4016;50.758;7.150;2022-10-20T22:22:00;14.70;118.99
7942;HTU21D;4016;50.758;7.150;2022-10-20T22:27:03;14.74;118.99
7942;HTU21D;4016;50.758;7.150;2022-10-20T22:32:03;14.80;118.99
7942;HTU21D;4016;50.758;7.150;2022-10-20T22:37:04;14.87;118.99
7942;HTU21D;4016;50.758;7.150;2022-10-20T22:42:04;14.94;118.99
7942;HTU21D;4016;50.758;7.150;2022-10-20T22:47:04;14.89;118.99
7942;HTU21D;4016;50.758;7.150;2022-10-20T22:52:05;14.93;118.99
7942;HTU21D;4016;50.758;7.150;2022-10-20T22:57:05;14.96;118.99
7942;HTU21D;4016;50.758;7.150;2022-10-20T23:02:05;15.02;118.99
7942;HTU21D;4016;50.758;7.150;2022-10-20T23:07:06;15.01;118.99
7942;HTU21D;4016;50.758;7.150;2022-10-20T23:12:06;14.94;118.99
7942;HTU21D;4016;50.758;7.150;2022-10-20T23:17:06;14.86;118.99
7942;HTU21D;4016;50.758;7.150;2022-10-20T23:22:07;14.79;118.99
7942;HTU21D;4016;50.758;7.150;2022-10-20T23:27:09;14.74;118.99
7942;HTU21D;4016;50.758;7.150;2022-10-20T23:32:10;14.66;118.99
7942;HTU21D;4016;50.758;7.150;2022-10-20T23:37:10;14.58;118.99
7942;HTU21D;4016;50.758;7.150;2022-10-20T23:42:11;14.62;118.99
7942;HTU21D;4016;50.758;7.150;2022-10-20T23:47:11;14.80;118.99
7942;HTU21D;4016;50.758;7.150;2022-10-20T23:52:11;14.73;118.99
7942;HTU21D;4016;50.758;7.150;2022-10-20T23:57:12;14.72;118.99
